KLUF/LUF METAR and TAF weather

Enter ICAO airport designator
Station Type Date Time Source
KLUF METAR 2020/12/05 05:58 UTC NOAA

KLUF 050558Z AUTO 34005KT 10SM CLR 07/M10 A3017 RMK AO2 SLP217 T00681096 10178 20068 52013 $


Station Type Date Time Source
KLUF Decoded METAR 2020/12/05 05:58 UTC NOAA

Luke Air Force Base / Phoenix, AZ, United States (KLUF) 33-32N 112-23W 332M
Dec 05, 2020 - 12:58 AM EST / 2020.12.05 0558 UTC
Wind: from the NNW (340 degrees) at 6 MPH (5 KT):0
Visibility: 10 mile(s):0
Sky conditions: clear
Temperature: 44.2 F (6.8 C)
Dew Point: 14.7 F (-9.6 C)
Relative Humidity: 29%
Pressure (altimeter): 30.17 in. Hg (1021 hPa)
Pressure tendency: 0.04 inches (1.3 hPa) higher than three hours ago
ob: KLUF 050558Z AUTO 34005KT 10SM CLR 07/M10 A3017 RMK AO2 SLP217 T00681096 10178 20068 52013
cycle: 6

Station Type Date Time Source
KLUF TAF 2020/12/04 20:06 UTC NOAA

TAF KLUF 042000Z 0420/0602 VRB06KT 9999 SKC QNH3014INS TX16/0423Z TN02/0514Z LAST NO
AMDS AFT 0423 NEXT 0712

Example: see airport list